sensor_id;sensor_type;location;lat;lon;timestamp;P1;durP1;ratioP1;P2;durP2;ratioP2
20318;SDS011;10317;47.254;11.314;2023-12-20T00:01:20;14.60;;;9.57;;
20318;SDS011;10317;47.254;11.314;2023-12-20T00:03:46;24.33;;;11.20;;
20318;SDS011;10317;47.254;11.314;2023-12-20T00:06:11;17.60;;;9.85;;
20318;SDS011;10317;47.254;11.314;2023-12-20T00:08:37;24.52;;;10.90;;
20318;SDS011;10317;47.254;11.314;2023-12-20T00:11:03;20.40;;;10.68;;
20318;SDS011;10317;47.254;11.314;2023-12-20T00:13:28;19.50;;;10.38;;
20318;SDS011;10317;47.254;11.314;2023-12-20T00:15:54;19.77;;;10.05;;
20318;SDS011;10317;47.254;11.314;2023-12-20T00:18:20;20.90;;;9.80;;
20318;SDS011;10317;47.254;11.314;2023-12-20T00:20:45;15.85;;;10.27;;
20318;SDS011;10317;47.254;11.314;2023-12-20T00:23:11;18.85;;;9.70;;
20318;SDS011;10317;47.254;11.314;2023-12-20T00:25:36;14.98;;;9.13;;
20318;SDS011;10317;47.254;11.314;2023-12-20T00:28:02;15.10;;;9.98;;
20318;SDS011;10317;47.254;11.314;2023-12-20T00:30:28;17.55;;;9.40;;
20318;SDS011;10317;47.254;11.314;2023-12-20T00:32:54;15.98;;;8.98;;
20318;SDS011;10317;47.254;11.314;2023-12-20T00:35:21;17.35;;;9.20;;
20318;SDS011;10317;47.254;11.314;2023-12-20T00:37:46;16.83;;;11.60;;
20318;SDS011;10317;47.254;11.314;2023-12-20T00:40:12;19.85;;;9.40;;
20318;SDS011;10317;47.254;11.314;2023-12-20T00:42:38;15.05;;;8.98;;
20318;SDS011;10317;47.254;11.314;2023-12-20T00:45:04;20.45;;;11.18;;
20318;SDS011;10317;47.254;11.314;2023-12-20T00:47:30;17.98;;;10.30;;
20318;SDS011;10317;47.254;11.314;2023-12-20T00:49:56;18.40;;;9.73;;
20318;SDS011;10317;47.254;11.314;2023-12-20T00:52:23;21.40;;;10.68;;
20318;SDS011;10317;47.254;11.314;2023-12-20T00:54:48;14.57;;;9.25;;
20318;SDS011;10317;47.254;11.314;2023-12-20T00:57:14;22.25;;;11.20;;
20318;SDS011;10317;47.254;11.314;2023-12-20T00:59:40;18.98;;;10.90;;
20318;SDS011;10317;47.254;11.314;2023-12-20T01:02:06;17.85;;;9.45;;
20318;SDS011;10317;47.254;11.314;2023-12-20T01:04:31;16.85;;;9.70;;
20318;SDS011;10317;47.254;11.314;2023-12-20T01:06:57;17.85;;;10.25;;
20318;SDS011;10317;47.254;11.314;2023-12-20T01:09:23;19.92;;;10.85;;
20318;SDS011;10317;47.254;11.314;2023-12-20T01:11:51;18.48;;;10.13;;
20318;SDS011;10317;47.254;11.314;2023-12-20T01:14:17;21.60;;;10.25;;
20318;SDS011;10317;47.254;11.314;2023-12-20T01:16:43;16.65;;;10.32;;
20318;SDS011;10317;47.254;11.314;2023-12-20T01:19:08;18.70;;;10.13;;
20318;SDS011;10317;47.254;11.314;2023-12-20T01:21:34;14.68;;;10.30;;
20318;SDS011;10317;47.254;11.314;2023-12-20T01:24:00;16.92;;;10.20;;
20318;SDS011;10317;47.254;11.314;2023-12-20T01:26:25;14.45;;;10.23;;
20318;SDS011;10317;47.254;11.314;2023-12-20T01:28:51;16.42;;;9.98;;
20318;SDS011;10317;47.254;11.314;2023-12-20T01:31:17;19.88;;;10.13;;
20318;SDS011;10317;47.254;11.314;2023-12-20T01:33:42;16.98;;;8.77;;
20318;SDS011;10317;47.254;11.314;2023-12-20T01:36:08;16.80;;;9.52;;
20318;SDS011;10317;47.254;11.314;2023-12-20T01:38:34;23.40;;;11.27;;
20318;SDS011;10317;47.254;11.314;2023-12-20T01:41:00;15.93;;;10.50;;
20318;SDS011;10317;47.254;11.314;2023-12-20T01:43:25;19.50;;;10.05;;
20318;SDS011;10317;47.254;11.314;2023-12-20T01:45:51;21.77;;;9.52;;
20318;SDS011;10317;47.254;11.314;2023-12-20T01:48:17;15.00;;;9.35;;
20318;SDS011;10317;47.254;11.314;2023-12-20T01:50:44;16.38;;;9.30;;
20318;SDS011;10317;47.254;11.314;2023-12-20T01:53:11;11.20;;;8.15;;
20318;SDS011;10317;47.254;11.314;2023-12-20T01:55:38;14.32;;;9.15;;
20318;SDS011;10317;47.254;11.314;2023-12-20T01:58:05;15.10;;;9.40;;
20318;SDS011;10317;47.254;11.314;2023-12-20T02:00:32;15.90;;;9.60;;
20318;SDS011;10317;47.254;11.314;2023-12-20T02:03:00;13.57;;;8.25;;
20318;SDS011;10317;47.254;11.314;2023-12-20T02:05:27;18.92;;;9.93;;
20318;SDS011;10317;47.254;11.314;2023-12-20T02:07:57;16.75;;;9.93;;
20318;SDS011;10317;47.254;11.314;2023-12-20T02:10:23;14.25;;;8.80;;
20318;SDS011;10317;47.254;11.314;2023-12-20T02:12:49;16.85;;;9.30;;
20318;SDS011;10317;47.254;11.314;2023-12-20T02:15:15;17.30;;;9.32;;
20318;SDS011;10317;47.254;11.314;2023-12-20T02:17:41;12.75;;;9.05;;
20318;SDS011;10317;47.254;11.314;2023-12-20T02:20:07;12.13;;;8.10;;
20318;SDS011;10317;47.254;11.314;2023-12-20T02:22:33;15.65;;;8.50;;
20318;SDS011;10317;47.254;11.314;2023-12-20T02:24:58;15.45;;;9.52;;
20318;SDS011;10317;47.254;11.314;2023-12-20T02:27:24;13.75;;;8.90;;
20318;SDS011;10317;47.254;11.314;2023-12-20T02:29:50;15.80;;;8.75;;
20318;SDS011;10317;47.254;11.314;2023-12-20T02:32:16;10.13;;;8.00;;
20318;SDS011;10317;47.254;11.314;2023-12-20T02:34:43;12.35;;;8.75;;
20318;SDS011;10317;47.254;11.314;2023-12-20T02:37:09;16.30;;;9.00;;
20318;SDS011;10317;47.254;11.314;2023-12-20T02:39:34;13.13;;;8.70;;
20318;SDS011;10317;47.254;11.314;2023-12-20T02:42:00;13.57;;;9.27;;
20318;SDS011;10317;47.254;11.314;2023-12-20T02:44:25;18.35;;;8.75;;
20318;SDS011;10317;47.254;11.314;2023-12-20T02:46:51;10.40;;;7.82;;
20318;SDS011;10317;47.254;11.314;2023-12-20T02:49:17;15.18;;;8.00;;
20318;SDS011;10317;47.254;11.314;2023-12-20T02:51:43;14.48;;;8.88;;
20318;SDS011;10317;47.254;11.314;2023-12-20T02:54:08;15.65;;;8.45;;
20318;SDS011;10317;47.254;11.314;2023-12-20T02:56:34;16.70;;;9.43;;
20318;SDS011;10317;47.254;11.314;2023-12-20T02:59:00;14.25;;;9.07;;
20318;SDS011;10317;47.254;11.314;2023-12-20T03:01:26;15.57;;;9.00;;
20318;SDS011;10317;47.254;11.314;2023-12-20T03:03:52;29.08;;;10.07;;
20318;SDS011;10317;47.254;11.314;2023-12-20T03:06:18;17.55;;;8.98;;
20318;SDS011;10317;47.254;11.314;2023-12-20T03:08:44;19.85;;;10.35;;
20318;SDS011;10317;47.254;11.314;2023-12-20T03:11:10;15.52;;;8.45;;
20318;SDS011;10317;47.254;11.314;2023-12-20T03:13:36;16.42;;;10.68;;
20318;SDS011;10317;47.254;11.314;2023-12-20T03:16:07;15.23;;;9.10;;
20318;SDS011;10317;47.254;11.314;2023-12-20T03:18:36;15.75;;;9.65;;
20318;SDS011;10317;47.254;11.314;2023-12-20T03:21:03;17.70;;;10.32;;
20318;SDS011;10317;47.254;11.314;2023-12-20T03:23:30;14.23;;;9.77;;
20318;SDS011;10317;47.254;11.314;2023-12-20T03:25:57;13.20;;;9.45;;
20318;SDS011;10317;47.254;11.314;2023-12-20T03:28:23;17.27;;;10.63;;
20318;SDS011;10317;47.254;11.314;2023-12-20T03:30:49;16.88;;;10.65;;
20318;SDS011;10317;47.254;11.314;2023-12-20T03:33:14;17.05;;;10.35;;
20318;SDS011;10317;47.254;11.314;2023-12-20T03:35:40;16.58;;;9.40;;
20318;SDS011;10317;47.254;11.314;2023-12-20T03:38:06;16.17;;;8.85;;
20318;SDS011;10317;47.254;11.314;2023-12-20T03:40:32;17.40;;;9.73;;
20318;SDS011;10317;47.254;11.314;2023-12-20T03:42:57;15.90;;;9.57;;
20318;SDS011;10317;47.254;11.314;2023-12-20T03:45:23;14.68;;;10.13;;
20318;SDS011;10317;47.254;11.314;2023-12-20T03:47:49;17.23;;;9.82;;
20318;SDS011;10317;47.254;11.314;2023-12-20T03:50:14;13.57;;;10.10;;
20318;SDS011;10317;47.254;11.314;2023-12-20T03:52:40;13.90;;;9.45;;
20318;SDS011;10317;47.254;11.314;2023-12-20T03:55:06;19.00;;;10.75;;
20318;SDS011;10317;47.254;11.314;2023-12-20T03:57:32;15.60;;;10.02;;
20318;SDS011;10317;47.254;11.314;2023-12-20T03:59:57;19.42;;;10.38;;
20318;SDS011;10317;47.254;11.314;2023-12-20T04:02:23;17.48;;;9.90;;
20318;SDS011;10317;47.254;11.314;2023-12-20T04:04:49;12.68;;;9.80;;
20318;SDS011;10317;47.254;11.314;2023-12-20T04:07:14;15.52;;;9.32;;
20318;SDS011;10317;47.254;11.314;2023-12-20T04:09:40;15.82;;;9.13;;
20318;SDS011;10317;47.254;11.314;2023-12-20T04:12:06;15.77;;;9.75;;
20318;SDS011;10317;47.254;11.314;2023-12-20T04:14:32;17.60;;;9.88;;
20318;SDS011;10317;47.254;11.314;2023-12-20T04:16:58;18.67;;;10.55;;
20318;SDS011;10317;47.254;11.314;2023-12-20T04:19:23;17.48;;;10.30;;
20318;SDS011;10317;47.254;11.314;2023-12-20T04:21:49;14.40;;;9.63;;
20318;SDS011;10317;47.254;11.314;2023-12-20T04:24:15;16.77;;;9.95;;
20318;SDS011;10317;47.254;11.314;2023-12-20T04:26:41;15.15;;;9.18;;
20318;SDS011;10317;47.254;11.314;2023-12-20T04:29:06;12.95;;;8.45;;
20318;SDS011;10317;47.254;11.314;2023-12-20T04:31:32;22.23;;;10.60;;
20318;SDS011;10317;47.254;11.314;2023-12-20T04:33:58;14.30;;;9.35;;
20318;SDS011;10317;47.254;11.314;2023-12-20T04:36:23;14.45;;;8.35;;
20318;SDS011;10317;47.254;11.314;2023-12-20T04:38:51;19.02;;;9.48;;
20318;SDS011;10317;47.254;11.314;2023-12-20T04:41:18;14.10;;;9.80;;
20318;SDS011;10317;47.254;11.314;2023-12-20T04:43:44;15.50;;;9.57;;
20318;SDS011;10317;47.254;11.314;2023-12-20T04:46:09;14.65;;;9.20;;
20318;SDS011;10317;47.254;11.314;2023-12-20T04:48:35;16.30;;;9.88;;
20318;SDS011;10317;47.254;11.314;2023-12-20T04:51:01;13.95;;;10.00;;
20318;SDS011;10317;47.254;11.314;2023-12-20T04:53:27;14.75;;;8.20;;
20318;SDS011;10317;47.254;11.314;2023-12-20T04:55:52;14.07;;;8.82;;
20318;SDS011;10317;47.254;11.314;2023-12-20T04:58:18;13.30;;;10.15;;
20318;SDS011;10317;47.254;11.314;2023-12-20T05:00:44;13.13;;;8.48;;
20318;SDS011;10317;47.254;11.314;2023-12-20T05:03:09;15.52;;;10.20;;
20318;SDS011;10317;47.254;11.314;2023-12-20T05:05:35;13.57;;;9.05;;
20318;SDS011;10317;47.254;11.314;2023-12-20T05:08:01;17.75;;;10.68;;
20318;SDS011;10317;47.254;11.314;2023-12-20T05:10:27;17.92;;;10.90;;
20318;SDS011;10317;47.254;11.314;2023-12-20T05:12:53;19.60;;;10.13;;
20318;SDS011;10317;47.254;11.314;2023-12-20T05:15:18;15.15;;;9.40;;
20318;SDS011;10317;47.254;11.314;2023-12-20T05:17:44;17.75;;;10.07;;
20318;SDS011;10317;47.254;11.314;2023-12-20T05:20:10;19.02;;;9.43;;
20318;SDS011;10317;47.254;11.314;2023-12-20T05:22:35;16.40;;;9.85;;
20318;SDS011;10317;47.254;11.314;2023-12-20T05:25:01;15.20;;;10.00;;
20318;SDS011;10317;47.254;11.314;2023-12-20T05:27:27;15.50;;;9.18;;
20318;SDS011;10317;47.254;11.314;2023-12-20T05:29:52;15.35;;;8.93;;
20318;SDS011;10317;47.254;11.314;2023-12-20T05:32:22;11.80;;;8.50;;
20318;SDS011;10317;47.254;11.314;2023-12-20T05:34:48;19.75;;;9.77;;
20318;SDS011;10317;47.254;11.314;2023-12-20T05:37:14;21.20;;;10.35;;
20318;SDS011;10317;47.254;11.314;2023-12-20T05:39:39;21.35;;;9.20;;
20318;SDS011;10317;47.254;11.314;2023-12-20T05:42:05;21.73;;;10.63;;
20318;SDS011;10317;47.254;11.314;2023-12-20T05:44:31;16.40;;;9.48;;
20318;SDS011;10317;47.254;11.314;2023-12-20T05:46:56;16.60;;;11.20;;
20318;SDS011;10317;47.254;11.314;2023-12-20T05:49:22;17.98;;;10.18;;
20318;SDS011;10317;47.254;11.314;2023-12-20T05:51:47;15.50;;;9.50;;
20318;SDS011;10317;47.254;11.314;2023-12-20T05:54:13;16.92;;;9.93;;
20318;SDS011;10317;47.254;11.314;2023-12-20T05:56:39;13.55;;;8.93;;
20318;SDS011;10317;47.254;11.314;2023-12-20T05:59:04;16.35;;;9.30;;
20318;SDS011;10317;47.254;11.314;2023-12-20T06:01:30;11.30;;;8.50;;
20318;SDS011;10317;47.254;11.314;2023-12-20T06:03:56;14.70;;;9.52;;
20318;SDS011;10317;47.254;11.314;2023-12-20T06:06:22;16.10;;;9.07;;
20318;SDS011;10317;47.254;11.314;2023-12-20T06:08:48;14.65;;;9.15;;
20318;SDS011;10317;47.254;11.314;2023-12-20T06:11:14;15.77;;;9.20;;
20318;SDS011;10317;47.254;11.314;2023-12-20T06:13:39;14.32;;;10.07;;
20318;SDS011;10317;47.254;11.314;2023-12-20T06:16:05;18.90;;;9.55;;
20318;SDS011;10317;47.254;11.314;2023-12-20T06:18:32;16.35;;;9.02;;
20318;SDS011;10317;47.254;11.314;2023-12-20T06:20:57;10.82;;;8.57;;
20318;SDS011;10317;47.254;11.314;2023-12-20T06:23:23;17.15;;;9.32;;
20318;SDS011;10317;47.254;11.314;2023-12-20T06:25:49;15.80;;;8.93;;
20318;SDS011;10317;47.254;11.314;2023-12-20T06:28:14;20.17;;;10.05;;
20318;SDS011;10317;47.254;11.314;2023-12-20T06:30:40;15.07;;;9.60;;
20318;SDS011;10317;47.254;11.314;2023-12-20T06:33:06;14.98;;;10.02;;
20318;SDS011;10317;47.254;11.314;2023-12-20T06:35:32;12.38;;;8.80;;
20318;SDS011;10317;47.254;11.314;2023-12-20T06:37:57;15.98;;;10.25;;
20318;SDS011;10317;47.254;11.314;2023-12-20T06:40:23;15.88;;;9.32;;
20318;SDS011;10317;47.254;11.314;2023-12-20T06:42:49;16.23;;;10.27;;
20318;SDS011;10317;47.254;11.314;2023-12-20T06:45:14;19.20;;;10.57;;
20318;SDS011;10317;47.254;11.314;2023-12-20T06:47:40;19.40;;;10.27;;
20318;SDS011;10317;47.254;11.314;2023-12-20T06:50:06;15.90;;;8.85;;
20318;SDS011;10317;47.254;11.314;2023-12-20T06:52:33;14.40;;;8.45;;
20318;SDS011;10317;47.254;11.314;2023-12-20T06:55:00;14.75;;;9.55;;
20318;SDS011;10317;47.254;11.314;2023-12-20T06:57:26;16.02;;;9.07;;
20318;SDS011;10317;47.254;11.314;2023-12-20T06:59:52;16.27;;;9.63;;
20318;SDS011;10317;47.254;11.314;2023-12-20T07:02:18;14.50;;;8.38;;
20318;SDS011;10317;47.254;11.314;2023-12-20T07:04:44;16.27;;;9.32;;
20318;SDS011;10317;47.254;11.314;2023-12-20T07:07:09;11.63;;;8.07;;
20318;SDS011;10317;47.254;11.314;2023-12-20T07:09:35;16.27;;;8.98;;
20318;SDS011;10317;47.254;11.314;2023-12-20T07:12:01;15.10;;;9.43;;
20318;SDS011;10317;47.254;11.314;2023-12-20T07:14:27;17.92;;;9.63;;
20318;SDS011;10317;47.254;11.314;2023-12-20T07:16:54;13.65;;;8.40;;
20318;SDS011;10317;47.254;11.314;2023-12-20T07:19:19;11.65;;;8.40;;
20318;SDS011;10317;47.254;11.314;2023-12-20T07:21:45;15.98;;;8.77;;
20318;SDS011;10317;47.254;11.314;2023-12-20T07:24:11;15.65;;;9.13;;
20318;SDS011;10317;47.254;11.314;2023-12-20T07:26:36;14.35;;;8.48;;
20318;SDS011;10317;47.254;11.314;2023-12-20T07:29:05;15.07;;;9.13;;
20318;SDS011;10317;47.254;11.314;2023-12-20T07:31:31;15.20;;;8.90;;
20318;SDS011;10317;47.254;11.314;2023-12-20T07:33:57;16.15;;;9.82;;
20318;SDS011;10317;47.254;11.314;2023-12-20T07:36:23;19.27;;;9.43;;
20318;SDS011;10317;47.254;11.314;2023-12-20T07:38:49;16.85;;;10.10;;
20318;SDS011;10317;47.254;11.314;2023-12-20T07:41:14;14.90;;;8.98;;
20318;SDS011;10317;47.254;11.314;2023-12-20T07:43:46;18.45;;;9.80;;
20318;SDS011;10317;47.254;11.314;2023-12-20T07:46:11;19.23;;;10.18;;
20318;SDS011;10317;47.254;11.314;2023-12-20T07:48:37;11.90;;;8.55;;
20318;SDS011;10317;47.254;11.314;2023-12-20T07:51:04;12.93;;;8.77;;
20318;SDS011;10317;47.254;11.314;2023-12-20T07:53:32;14.63;;;8.50;;
20318;SDS011;10317;47.254;11.314;2023-12-20T07:55:57;16.50;;;8.05;;
20318;SDS011;10317;47.254;11.314;2023-12-20T07:58:23;15.90;;;8.65;;
20318;SDS011;10317;47.254;11.314;2023-12-20T08:00:49;15.27;;;9.88;;
20318;SDS011;10317;47.254;11.314;2023-12-20T08:03:14;20.00;;;10.70;;
20318;SDS011;10317;47.254;11.314;2023-12-20T08:05:41;22.58;;;12.20;;
20318;SDS011;10317;47.254;11.314;2023-12-20T08:08:06;20.80;;;11.20;;
20318;SDS011;10317;47.254;11.314;2023-12-20T08:10:32;17.65;;;10.45;;
20318;SDS011;10317;47.254;11.314;2023-12-20T08:12:58;20.10;;;10.90;;
20318;SDS011;10317;47.254;11.314;2023-12-20T08:15:23;18.35;;;11.38;;
20318;SDS011;10317;47.254;11.314;2023-12-20T08:17:49;15.98;;;9.63;;
20318;SDS011;10317;47.254;11.314;2023-12-20T08:20:16;14.80;;;10.02;;
20318;SDS011;10317;47.254;11.314;2023-12-20T08:22:42;25.65;;;12.10;;
20318;SDS011;10317;47.254;11.314;2023-12-20T08:25:07;19.00;;;9.70;;
20318;SDS011;10317;47.254;11.314;2023-12-20T08:27:33;15.27;;;10.15;;
20318;SDS011;10317;47.254;11.314;2023-12-20T08:30:03;20.30;;;10.52;;
20318;SDS011;10317;47.254;11.314;2023-12-20T08:32:29;19.00;;;10.20;;
20318;SDS011;10317;47.254;11.314;2023-12-20T08:34:55;22.65;;;10.10;;
20318;SDS011;10317;47.254;11.314;2023-12-20T08:37:20;14.75;;;10.32;;
20318;SDS011;10317;47.254;11.314;2023-12-20T08:39:46;15.95;;;10.00;;
20318;SDS011;10317;47.254;11.314;2023-12-20T08:42:11;15.07;;;9.88;;
20318;SDS011;10317;47.254;11.314;2023-12-20T08:44:37;15.35;;;9.93;;
20318;SDS011;10317;47.254;11.314;2023-12-20T08:47:03;17.00;;;8.88;;
20318;SDS011;10317;47.254;11.314;2023-12-20T08:49:30;16.42;;;9.48;;
20318;SDS011;10317;47.254;11.314;2023-12-20T08:51:56;11.70;;;9.52;;
20318;SDS011;10317;47.254;11.314;2023-12-20T08:54:22;15.10;;;10.23;;
20318;SDS011;10317;47.254;11.314;2023-12-20T08:56:47;16.90;;;9.75;;
20318;SDS011;10317;47.254;11.314;2023-12-20T08:59:13;20.17;;;10.48;;
20318;SDS011;10317;47.254;11.314;2023-12-20T09:01:39;17.13;;;10.90;;
20318;SDS011;10317;47.254;11.314;2023-12-20T09:04:04;14.63;;;9.68;;
20318;SDS011;10317;47.254;11.314;2023-12-20T09:06:31;12.88;;;9.50;;
20318;SDS011;10317;47.254;11.314;2023-12-20T09:08:57;17.95;;;9.48;;
20318;SDS011;10317;47.254;11.314;2023-12-20T09:11:22;14.77;;;9.40;;
20318;SDS011;10317;47.254;11.314;2023-12-20T09:13:48;22.02;;;11.40;;
20318;SDS011;10317;47.254;11.314;2023-12-20T09:16:14;16.88;;;10.10;;
20318;SDS011;10317;47.254;11.314;2023-12-20T09:18:41;13.30;;;9.73;;
20318;SDS011;10317;47.254;11.314;2023-12-20T09:21:07;17.00;;;10.30;;
20318;SDS011;10317;47.254;11.314;2023-12-20T09:23:32;15.82;;;10.23;;
20318;SDS011;10317;47.254;11.314;2023-12-20T09:25:58;17.17;;;10.52;;
20318;SDS011;10317;47.254;11.314;2023-12-20T09:28:24;19.73;;;11.15;;
20318;SDS011;10317;47.254;11.314;2023-12-20T09:30:49;17.00;;;8.95;;
20318;SDS011;10317;47.254;11.314;2023-12-20T09:33:15;19.83;;;10.70;;
20318;SDS011;10317;47.254;11.314;2023-12-20T09:35:41;16.80;;;9.90;;
20318;SDS011;10317;47.254;11.314;2023-12-20T09:38:07;13.10;;;9.73;;
20318;SDS011;10317;47.254;11.314;2023-12-20T09:40:33;12.70;;;9.40;;
20318;SDS011;10317;47.254;11.314;2023-12-20T09:43:04;16.23;;;10.05;;
20318;SDS011;10317;47.254;11.314;2023-12-20T09:45:36;15.25;;;9.27;;
20318;SDS011;10317;47.254;11.314;2023-12-20T09:48:03;14.73;;;10.50;;
20318;SDS011;10317;47.254;11.314;2023-12-20T09:50:30;15.32;;;9.75;;
20318;SDS011;10317;47.254;11.314;2023-12-20T09:52:57;13.48;;;9.20;;
20318;SDS011;10317;47.254;11.314;2023-12-20T09:55:25;12.85;;;10.05;;
20318;SDS011;10317;47.254;11.314;2023-12-20T09:57:53;18.77;;;10.45;;
20318;SDS011;10317;47.254;11.314;2023-12-20T10:00:19;19.02;;;10.32;;
20318;SDS011;10317;47.254;11.314;2023-12-20T10:02:56;15.10;;;9.82;;
20318;SDS011;10317;47.254;11.314;2023-12-20T10:05:27;15.13;;;10.18;;
20318;SDS011;10317;47.254;11.314;2023-12-20T10:07:54;17.98;;;9.10;;
20318;SDS011;10317;47.254;11.314;2023-12-20T10:10:20;17.50;;;10.77;;
20318;SDS011;10317;47.254;11.314;2023-12-20T10:13:00;15.93;;;9.95;;
20318;SDS011;10317;47.254;11.314;2023-12-20T10:15:30;15.30;;;9.88;;
20318;SDS011;10317;47.254;11.314;2023-12-20T10:17:57;15.57;;;9.98;;
20318;SDS011;10317;47.254;11.314;2023-12-20T10:20:23;19.42;;;9.93;;
20318;SDS011;10317;47.254;11.314;2023-12-20T10:22:49;13.68;;;9.63;;
20318;SDS011;10317;47.254;11.314;2023-12-20T10:25:14;19.10;;;10.93;;
20318;SDS011;10317;47.254;11.314;2023-12-20T10:27:40;16.75;;;10.20;;
20318;SDS011;10317;47.254;11.314;2023-12-20T10:30:06;17.88;;;10.30;;
20318;SDS011;10317;47.254;11.314;2023-12-20T10:32:32;24.13;;;12.38;;
20318;SDS011;10317;47.254;11.314;2023-12-20T10:34:57;18.65;;;12.35;;
20318;SDS011;10317;47.254;11.314;2023-12-20T10:37:24;19.95;;;12.75;;
20318;SDS011;10317;47.254;11.314;2023-12-20T10:39:51;22.67;;;12.30;;
20318;SDS011;10317;47.254;11.314;2023-12-20T10:42:21;17.15;;;12.57;;
20318;SDS011;10317;47.254;11.314;2023-12-20T10:44:48;19.00;;;12.18;;
20318;SDS011;10317;47.254;11.314;2023-12-20T10:47:15;18.83;;;12.15;;
20318;SDS011;10317;47.254;11.314;2023-12-20T10:49:42;23.05;;;11.95;;
20318;SDS011;10317;47.254;11.314;2023-12-20T10:52:09;18.65;;;11.32;;
20318;SDS011;10317;47.254;11.314;2023-12-20T10:54:37;18.35;;;11.23;;
20318;SDS011;10317;47.254;11.314;2023-12-20T10:57:05;21.00;;;11.50;;
20318;SDS011;10317;47.254;11.314;2023-12-20T10:59:32;19.92;;;12.07;;
20318;SDS011;10317;47.254;11.314;2023-12-20T11:02:01;15.95;;;10.65;;
20318;SDS011;10317;47.254;11.314;2023-12-20T11:04:33;16.48;;;11.13;;
20318;SDS011;10317;47.254;11.314;2023-12-20T11:07:17;18.65;;;11.75;;
20318;SDS011;10317;47.254;11.314;2023-12-20T11:13:10;16.75;;;11.13;;
20318;SDS011;10317;47.254;11.314;2023-12-20T11:15:45;23.73;;;11.95;;
20318;SDS011;10317;47.254;11.314;2023-12-20T11:18:11;21.00;;;12.25;;
20318;SDS011;10317;47.254;11.314;2023-12-20T11:20:40;23.08;;;11.68;;
20318;SDS011;10317;47.254;11.314;2023-12-20T11:23:07;24.33;;;12.32;;
20318;SDS011;10317;47.254;11.314;2023-12-20T11:28:13;20.73;;;11.75;;
20318;SDS011;10317;47.254;11.314;2023-12-20T11:30:46;16.98;;;10.80;;
20318;SDS011;10317;47.254;11.314;2023-12-20T11:33:14;23.05;;;11.65;;
20318;SDS011;10317;47.254;11.314;2023-12-20T11:48:01;19.48;;;11.68;;
20318;SDS011;10317;47.254;11.314;2023-12-20T11:50:27;19.75;;;11.00;;
20318;SDS011;10317;47.254;11.314;2023-12-20T11:52:55;17.65;;;10.98;;
20318;SDS011;10317;47.254;11.314;2023-12-20T11:55:21;14.80;;;10.60;;
20318;SDS011;10317;47.254;11.314;2023-12-20T11:57:49;13.38;;;10.55;;
20318;SDS011;10317;47.254;11.314;2023-12-20T12:00:15;14.55;;;10.32;;
20318;SDS011;10317;47.254;11.314;2023-12-20T12:02:42;17.67;;;10.40;;
20318;SDS011;10317;47.254;11.314;2023-12-20T12:05:08;14.38;;;9.65;;
20318;SDS011;10317;47.254;11.314;2023-12-20T12:07:34;17.05;;;11.07;;
20318;SDS011;10317;47.254;11.314;2023-12-20T12:10:00;16.02;;;10.10;;
20318;SDS011;10317;47.254;11.314;2023-12-20T12:12:26;16.23;;;11.02;;
20318;SDS011;10317;47.254;11.314;2023-12-20T12:14:52;12.48;;;8.75;;
20318;SDS011;10317;47.254;11.314;2023-12-20T12:17:19;14.65;;;9.73;;
20318;SDS011;10317;47.254;11.314;2023-12-20T12:19:45;14.70;;;8.80;;
20318;SDS011;10317;47.254;11.314;2023-12-20T12:22:12;15.98;;;10.32;;
20318;SDS011;10317;47.254;11.314;2023-12-20T12:24:45;16.60;;;9.80;;
20318;SDS011;10317;47.254;11.314;2023-12-20T12:27:15;12.25;;;9.20;;
20318;SDS011;10317;47.254;11.314;2023-12-20T12:29:41;16.95;;;9.73;;
20318;SDS011;10317;47.254;11.314;2023-12-20T12:32:24;12.90;;;9.05;;
20318;SDS011;10317;47.254;11.314;2023-12-20T12:34:50;14.73;;;8.60;;
20318;SDS011;10317;47.254;11.314;2023-12-20T12:37:16;14.48;;;8.88;;
20318;SDS011;10317;47.254;11.314;2023-12-20T12:39:42;14.93;;;8.93;;
20318;SDS011;10317;47.254;11.314;2023-12-20T12:42:07;12.95;;;9.77;;
20318;SDS011;10317;47.254;11.314;2023-12-20T12:44:33;16.48;;;9.00;;
20318;SDS011;10317;47.254;11.314;2023-12-20T12:46:59;9.15;;;7.65;;
20318;SDS011;10317;47.254;11.314;2023-12-20T12:49:24;11.98;;;8.30;;
20318;SDS011;10317;47.254;11.314;2023-12-20T12:51:53;16.33;;;9.32;;
20318;SDS011;10317;47.254;11.314;2023-12-20T12:54:21;13.48;;;9.35;;
20318;SDS011;10317;47.254;11.314;2023-12-20T12:56:46;8.38;;;7.40;;
20318;SDS011;10317;47.254;11.314;2023-12-20T12:59:12;12.93;;;8.70;;
20318;SDS011;10317;47.254;11.314;2023-12-20T13:01:38;9.45;;;7.40;;
20318;SDS011;10317;47.254;11.314;2023-12-20T13:04:04;11.90;;;7.20;;
20318;SDS011;10317;47.254;11.314;2023-12-20T13:06:35;8.75;;;6.90;;
20318;SDS011;10317;47.254;11.314;2023-12-20T13:09:01;9.90;;;7.50;;
20318;SDS011;10317;47.254;11.314;2023-12-20T13:11:27;8.57;;;7.40;;
20318;SDS011;10317;47.254;11.314;2023-12-20T13:13:54;9.52;;;6.72;;
20318;SDS011;10317;47.254;11.314;2023-12-20T13:16:19;9.82;;;6.53;;
20318;SDS011;10317;47.254;11.314;2023-12-20T13:18:45;9.07;;;6.50;;
20318;SDS011;10317;47.254;11.314;2023-12-20T13:21:11;12.15;;;6.78;;
20318;SDS011;10317;47.254;11.314;2023-12-20T13:23:36;12.25;;;7.57;;
20318;SDS011;10317;47.254;11.314;2023-12-20T13:26:02;10.45;;;6.75;;
20318;SDS011;10317;47.254;11.314;2023-12-20T13:28:28;8.98;;;7.18;;
20318;SDS011;10317;47.254;11.314;2023-12-20T13:30:53;7.68;;;6.55;;
20318;SDS011;10317;47.254;11.314;2023-12-20T13:33:19;7.07;;;5.60;;
20318;SDS011;10317;47.254;11.314;2023-12-20T13:35:45;7.38;;;6.03;;
20318;SDS011;10317;47.254;11.314;2023-12-20T13:38:12;7.75;;;5.55;;
20318;SDS011;10317;47.254;11.314;2023-12-20T13:40:38;8.65;;;5.30;;
20318;SDS011;10317;47.254;11.314;2023-12-20T13:43:04;8.13;;;5.55;;
20318;SDS011;10317;47.254;11.314;2023-12-20T13:45:30;7.50;;;5.05;;
20318;SDS011;10317;47.254;11.314;2023-12-20T13:47:56;8.15;;;5.18;;
20318;SDS011;10317;47.254;11.314;2023-12-20T13:50:23;8.18;;;6.35;;
20318;SDS011;10317;47.254;11.314;2023-12-20T13:52:49;7.68;;;5.32;;
20318;SDS011;10317;47.254;11.314;2023-12-20T13:55:15;12.73;;;6.07;;
20318;SDS011;10317;47.254;11.314;2023-12-20T13:57:41;6.53;;;5.30;;
20318;SDS011;10317;47.254;11.314;2023-12-20T14:00:07;7.53;;;5.40;;
20318;SDS011;10317;47.254;11.314;2023-12-20T14:02:39;6.13;;;4.75;;
20318;SDS011;10317;47.254;11.314;2023-12-20T14:05:06;7.93;;;5.38;;
20318;SDS011;10317;47.254;11.314;2023-12-20T14:07:33;5.72;;;4.60;;
20318;SDS011;10317;47.254;11.314;2023-12-20T14:09:58;6.47;;;5.25;;
20318;SDS011;10317;47.254;11.314;2023-12-20T14:12:24;5.53;;;5.03;;
20318;SDS011;10317;47.254;11.314;2023-12-20T14:14:50;7.63;;;4.85;;
20318;SDS011;10317;47.254;11.314;2023-12-20T14:17:16;6.32;;;4.50;;
20318;SDS011;10317;47.254;11.314;2023-12-20T14:19:43;7.43;;;5.50;;
20318;SDS011;10317;47.254;11.314;2023-12-20T14:22:08;5.05;;;4.55;;
20318;SDS011;10317;47.254;11.314;2023-12-20T14:24:37;5.45;;;4.82;;
20318;SDS011;10317;47.254;11.314;2023-12-20T14:27:02;5.72;;;4.88;;
20318;SDS011;10317;47.254;11.314;2023-12-20T14:29:28;8.98;;;5.25;;
20318;SDS011;10317;47.254;11.314;2023-12-20T14:31:54;6.78;;;4.38;;